sensor_id;sensor_type;location;lat;lon;timestamp;pressure;altitude;pressure_sealevel;temperature;humidity
49194;BME280;35029;50.804;12.866;2023-04-08T00:01:06;97981.53;;;4.22;100.00
49194;BME280;35029;50.804;12.866;2023-04-08T00:03:32;97988.75;;;4.20;100.00
49194;BME280;35029;50.804;12.866;2023-04-08T00:05:58;97989.41;;;4.22;100.00
49194;BME280;35029;50.804;12.866;2023-04-08T00:08:25;97984.69;;;4.26;100.00
49194;BME280;35029;50.804;12.866;2023-04-08T00:10:50;97981.63;;;4.31;100.00
49194;BME280;35029;50.804;12.866;2023-04-08T00:13:16;97982.63;;;4.30;100.00
49194;BME280;35029;50.804;12.866;2023-04-08T00:15:41;97985.25;;;4.30;100.00
49194;BME280;35029;50.804;12.866;2023-04-08T00:18:07;97973.91;;;4.29;100.00
49194;BME280;35029;50.804;12.866;2023-04-08T00:20:32;97973.97;;;4.19;100.00
49194;BME280;35029;50.804;12.866;2023-04-08T00:22:58;97982.31;;;4.33;100.00
49194;BME280;35029;50.804;12.866;2023-04-08T00:25:24;97988.69;;;4.30;100.00
49194;BME280;35029;50.804;12.866;2023-04-08T00:27:49;97979.59;;;4.25;100.00
49194;BME280;35029;50.804;12.866;2023-04-08T00:30:15;97987.16;;;4.28;100.00
49194;BME280;35029;50.804;12.866;2023-04-08T00:32:43;97980.16;;;4.28;100.00
49194;BME280;35029;50.804;12.866;2023-04-08T00:35:10;97989.94;;;4.26;100.00
49194;BME280;35029;50.804;12.866;2023-04-08T00:37:37;97984.69;;;4.26;100.00
49194;BME280;35029;50.804;12.866;2023-04-08T00:40:03;97984.69;;;4.26;100.00
49194;BME280;35029;50.804;12.866;2023-04-08T00:42:29;97987.56;;;4.33;100.00
49194;BME280;35029;50.804;12.866;2023-04-08T00:44:56;97987.31;;;4.26;100.00
49194;BME280;35029;50.804;12.866;2023-04-08T00:47:22;97972.94;;;4.12;100.00
49194;BME280;35029;50.804;12.866;2023-04-08T00:49:47;97979.38;;;4.18;100.00
49194;BME280;35029;50.804;12.866;2023-04-08T00:52:13;97976.28;;;4.22;100.00
49194;BME280;35029;50.804;12.866;2023-04-08T00:54:40;97980.97;;;4.29;100.00
49194;BME280;35029;50.804;12.866;2023-04-08T00:57:06;97977.28;;;4.21;100.00
49194;BME280;35029;50.804;12.866;2023-04-08T00:59:32;97956.66;;;4.09;100.00
49194;BME280;35029;50.804;12.866;2023-04-08T01:02:09;97988.06;;;4.18;100.00
49194;BME280;35029;50.804;12.866;2023-04-08T01:09:37;97988.06;;;4.18;100.00
49194;BME280;35029;50.804;12.866;2023-04-08T01:12:07;97971.19;;;4.03;100.00
49194;BME280;35029;50.804;12.866;2023-04-08T01:14:40;97993.69;;;4.23;100.00
49194;BME280;35029;50.804;12.866;2023-04-08T01:17:07;97997.66;;;4.28;100.00
49194;BME280;35029;50.804;12.866;2023-04-08T01:19:37;97992.13;;;4.31;100.00
49194;BME280;35029;50.804;12.866;2023-04-08T01:25:18;97991.16;;;4.32;100.00
49194;BME280;35029;50.804;12.866;2023-04-08T01:27:44;97996.84;;;4.27;100.00
49194;BME280;35029;50.804;12.866;2023-04-08T01:30:14;97963.31;;;4.03;100.00
49194;BME280;35029;50.804;12.866;2023-04-08T01:32:42;97986.50;;;4.26;100.00
49194;BME280;35029;50.804;12.866;2023-04-08T01:35:08;97991.38;;;4.20;100.00
49194;BME280;35029;50.804;12.866;2023-04-08T01:37:35;97992.34;;;4.19;100.00
49194;BME280;35029;50.804;12.866;2023-04-08T01:40:02;97994.97;;;4.19;100.00
49194;BME280;35029;50.804;12.866;2023-04-08T01:42:29;97995.34;;;4.25;100.00
49194;BME280;35029;50.804;12.866;2023-04-08T01:44:57;97979.22;;;4.19;100.00
49194;BME280;35029;50.804;12.866;2023-04-08T01:47:24;97980.25;;;4.27;100.00
49194;BME280;35029;50.804;12.866;2023-04-08T01:49:51;97959.66;;;4.14;100.00
49194;BME280;35029;50.804;12.866;2023-04-08T01:52:19;97980.66;;;4.32;100.00
49194;BME280;35029;50.804;12.866;2023-04-08T01:54:46;97982.47;;;4.31;100.00
49194;BME280;35029;50.804;12.866;2023-04-08T01:57:21;97980.25;;;4.27;100.00
49194;BME280;35029;50.804;12.866;2023-04-08T01:59:50;97989.78;;;4.28;100.00
49194;BME280;35029;50.804;12.866;2023-04-08T02:02:19;97985.91;;;4.32;100.00
49194;BME280;35029;50.804;12.866;2023-04-08T02:04:45;97977.88;;;4.33;100.00
49194;BME280;35029;50.804;12.866;2023-04-08T02:07:11;97978.19;;;4.30;100.00
49194;BME280;35029;50.804;12.866;2023-04-08T02:09:37;97976.59;;;4.37;100.00
49194;BME280;35029;50.804;12.866;2023-04-08T02:12:04;97972.78;;;4.32;100.00
49194;BME280;35029;50.804;12.866;2023-04-08T02:14:30;97948.69;;;4.18;100.00
49194;BME280;35029;50.804;12.866;2023-04-08T02:17:04;97982.69;;;4.38;100.00
49194;BME280;35029;50.804;12.866;2023-04-08T02:19:43;97977.72;;;4.35;100.00
49194;BME280;35029;50.804;12.866;2023-04-08T02:22:17;97954.25;;;4.15;100.00
49194;BME280;35029;50.804;12.866;2023-04-08T02:24:45;97984.31;;;4.39;100.00
49194;BME280;35029;50.804;12.866;2023-04-08T02:27:11;97982.53;;;4.39;100.00
49194;BME280;35029;50.804;12.866;2023-04-08T02:29:39;97977.63;;;4.27;100.00
49194;BME280;35029;50.804;12.866;2023-04-08T02:32:07;97980.00;;;4.30;100.00
49194;BME280;35029;50.804;12.866;2023-04-08T02:34:36;97981.63;;;4.31;100.00
49194;BME280;35029;50.804;12.866;2023-04-08T02:37:03;97983.81;;;4.35;100.00
49194;BME280;35029;50.804;12.866;2023-04-08T02:39:32;97989.72;;;4.37;100.00
49194;BME280;35029;50.804;12.866;2023-04-08T02:41:57;97936.78;;;4.06;100.00
49194;BME280;35029;50.804;12.866;2023-04-08T02:44:23;97971.13;;;4.31;100.00
49194;BME280;35029;50.804;12.866;2023-04-08T02:46:49;97984.78;;;4.34;100.00
49194;BME280;35029;50.804;12.866;2023-04-08T02:49:15;97977.59;;;4.36;100.00
49194;BME280;35029;50.804;12.866;2023-04-08T02:51:40;97985.31;;;4.38;100.00
49194;BME280;35029;50.804;12.866;2023-04-08T02:54:06;97973.38;;;4.26;100.00
49194;BME280;35029;50.804;12.866;2023-04-08T02:56:31;97989.28;;;4.42;100.00
49194;BME280;35029;50.804;12.866;2023-04-08T02:58:57;97984.41;;;4.47;100.00
49194;BME280;35029;50.804;12.866;2023-04-08T03:01:22;97991.06;;;4.42;100.00
49194;BME280;35029;50.804;12.866;2023-04-08T03:03:49;97990.31;;;4.49;100.00
49194;BME280;35029;50.804;12.866;2023-04-08T03:06:14;97990.78;;;4.45;100.00
49194;BME280;35029;50.804;12.866;2023-04-08T03:08:40;97980.88;;;4.38;100.00
49194;BME280;35029;50.804;12.866;2023-04-08T03:11:05;97988.81;;;4.47;100.00
49194;BME280;35029;50.804;12.866;2023-04-08T03:13:31;97993.75;;;4.50;100.00
49194;BME280;35029;50.804;12.866;2023-04-08T03:15:57;97995.56;;;4.49;100.00
49194;BME280;35029;50.804;12.866;2023-04-08T03:18:24;97980.22;;;4.36;100.00
49194;BME280;35029;50.804;12.866;2023-04-08T03:20:50;97982.22;;;4.43;100.00
49194;BME280;35029;50.804;12.866;2023-04-08T03:23:15;97995.72;;;4.48;100.00
49194;BME280;35029;50.804;12.866;2023-04-08T03:25:41;98002.41;;;4.42;100.00
49194;BME280;35029;50.804;12.866;2023-04-08T03:28:07;97985.31;;;4.38;100.00
49194;BME280;35029;50.804;12.866;2023-04-08T03:30:32;97991.84;;;4.34;100.00
49194;BME280;35029;50.804;12.866;2023-04-08T03:32:58;97985.31;;;4.38;100.00
49194;BME280;35029;50.804;12.866;2023-04-08T03:35:23;97981.03;;;4.19;100.00
49194;BME280;35029;50.804;12.866;2023-04-08T03:37:49;98003.84;;;4.36;100.00
49194;BME280;35029;50.804;12.866;2023-04-08T03:40:14;97986.34;;;4.27;100.00
49194;BME280;35029;50.804;12.866;2023-04-08T03:42:40;97999.03;;;4.32;100.00
49194;BME280;35029;50.804;12.866;2023-04-08T03:45:06;97996.94;;;4.35;100.00
49194;BME280;35029;50.804;12.866;2023-04-08T03:47:32;97994.75;;;4.31;100.00
49194;BME280;35029;50.804;12.866;2023-04-08T03:49:58;98003.59;;;4.30;100.00
49194;BME280;35029;50.804;12.866;2023-04-08T03:52:23;98003.38;;;4.23;100.00
49194;BME280;35029;50.804;12.866;2023-04-08T03:54:49;98009.13;;;4.27;100.00
49194;BME280;35029;50.804;12.866;2023-04-08T03:57:15;98011.91;;;4.25;100.00
49194;BME280;35029;50.804;12.866;2023-04-08T03:59:41;98017.53;;;4.30;100.00
49194;BME280;35029;50.804;12.866;2023-04-08T04:02:06;98019.19;;;4.31;100.00
49194;BME280;35029;50.804;12.866;2023-04-08T04:04:32;98014.63;;;4.33;100.00
49194;BME280;35029;50.804;12.866;2023-04-08T04:06:58;98022.50;;;4.33;100.00
49194;BME280;35029;50.804;12.866;2023-04-08T04:09:24;98023.75;;;4.29;100.00
49194;BME280;35029;50.804;12.866;2023-04-08T04:11:49;98014.25;;;4.28;100.00
49194;BME280;35029;50.804;12.866;2023-04-08T04:14:15;98016.03;;;4.28;100.00
49194;BME280;35029;50.804;12.866;2023-04-08T04:16:41;98020.63;;;4.26;100.00
49194;BME280;35029;50.804;12.866;2023-04-08T04:19:06;98002.53;;;4.22;100.00
49194;BME280;35029;50.804;12.866;2023-04-08T04:21:32;98017.25;;;4.33;100.00
49194;BME280;35029;50.804;12.866;2023-04-08T04:23:57;98021.91;;;4.39;100.00
49194;BME280;35029;50.804;12.866;2023-04-08T04:26:23;98021.06;;;4.39;100.00
49194;BME280;35029;50.804;12.866;2023-04-08T04:28:48;98021.81;;;4.31;100.00
49194;BME280;35029;50.804;12.866;2023-04-08T04:31:21;98020.09;;;4.40;100.00
49194;BME280;35029;50.804;12.866;2023-04-08T04:33:48;98022.44;;;4.43;100.00
49194;BME280;35029;50.804;12.866;2023-04-08T04:36:14;98020.78;;;4.42;100.00
49194;BME280;35029;50.804;12.866;2023-04-08T04:38:40;98019.28;;;4.39;100.00
49194;BME280;35029;50.804;12.866;2023-04-08T04:41:07;98030.97;;;4.45;100.00
49194;BME280;35029;50.804;12.866;2023-04-08T04:43:33;98030.31;;;4.43;100.00
49194;BME280;35029;50.804;12.866;2023-04-08T04:45:58;98030.09;;;4.36;100.00
49194;BME280;35029;50.804;12.866;2023-04-08T04:48:25;98027.69;;;4.43;100.00
49194;BME280;35029;50.804;12.866;2023-04-08T04:50:58;98031.34;;;4.32;100.00
49194;BME280;35029;50.804;12.866;2023-04-08T04:53:24;98032.25;;;4.23;100.00
49194;BME280;35029;50.804;12.866;2023-04-08T04:55:50;98018.44;;;4.21;100.00
49194;BME280;35029;50.804;12.866;2023-04-08T04:58:16;98043.88;;;4.38;100.00
49194;BME280;35029;50.804;12.866;2023-04-08T05:00:42;98030.81;;;4.29;100.00
49194;BME280;35029;50.804;12.866;2023-04-08T05:03:08;98022.41;;;4.25;100.00
49194;BME280;35029;50.804;12.866;2023-04-08T05:05:33;98039.31;;;4.40;100.00
49194;BME280;35029;50.804;12.866;2023-04-08T05:07:59;98047.84;;;4.43;100.00
49194;BME280;35029;50.804;12.866;2023-04-08T05:10:24;98043.72;;;4.40;100.00
49194;BME280;35029;50.804;12.866;2023-04-08T05:12:50;98044.03;;;4.37;100.00
49194;BME280;35029;50.804;12.866;2023-04-08T05:15:16;98059.38;;;4.32;100.00
49194;BME280;35029;50.804;12.866;2023-04-08T05:17:41;98054.28;;;4.30;100.00
49194;BME280;35029;50.804;12.866;2023-04-08T05:20:07;98060.06;;;4.34;100.00
49194;BME280;35029;50.804;12.866;2023-04-08T05:22:33;98057.16;;;4.37;100.00
49194;BME280;35029;50.804;12.866;2023-04-08T05:24:59;98062.69;;;4.34;100.00
49194;BME280;35029;50.804;12.866;2023-04-08T05:27:24;98026.84;;;4.25;100.00
49194;BME280;35029;50.804;12.866;2023-04-08T05:29:50;98052.94;;;4.44;100.00
49194;BME280;35029;50.804;12.866;2023-04-08T05:32:16;98025.09;;;4.15;100.00
49194;BME280;35029;50.804;12.866;2023-04-08T05:34:42;98065.41;;;4.42;100.00
49194;BME280;35029;50.804;12.866;2023-04-08T05:37:08;98063.50;;;4.34;100.00
49194;BME280;35029;50.804;12.866;2023-04-08T05:39:33;98061.94;;;4.42;100.00
49194;BME280;35029;50.804;12.866;2023-04-08T05:41:59;98067.72;;;4.45;100.00
49194;BME280;35029;50.804;12.866;2023-04-08T05:44:24;98073.94;;;4.44;100.00
49194;BME280;35029;50.804;12.866;2023-04-08T05:46:50;98070.34;;;4.45;100.00
49194;BME280;35029;50.804;12.866;2023-04-08T05:49:15;98073.13;;;4.44;100.00
49194;BME280;35029;50.804;12.866;2023-04-08T05:51:42;98074.25;;;4.41;100.00
49194;BME280;35029;50.804;12.866;2023-04-08T05:54:07;98063.91;;;4.39;100.00
49194;BME280;35029;50.804;12.866;2023-04-08T05:56:33;98074.25;;;4.41;100.00
49194;BME280;35029;50.804;12.866;2023-04-08T05:58:59;98071.31;;;4.44;100.00
49194;BME280;35029;50.804;12.866;2023-04-08T06:01:25;98072.00;;;4.46;100.00
49194;BME280;35029;50.804;12.866;2023-04-08T06:03:51;98077.41;;;4.45;100.00
49194;BME280;35029;50.804;12.866;2023-04-08T06:06:22;98083.56;;;4.53;100.00
49194;BME280;35029;50.804;12.866;2023-04-08T06:08:49;98093.59;;;4.58;100.00
49194;BME280;35029;50.804;12.866;2023-04-08T06:11:15;98089.78;;;4.52;100.00
49194;BME280;35029;50.804;12.866;2023-04-08T06:13:41;98090.91;;;4.50;100.00
49194;BME280;35029;50.804;12.866;2023-04-08T06:16:10;98090.09;;;4.49;100.00
49194;BME280;35029;50.804;12.866;2023-04-08T06:18:36;98096.69;;;4.53;100.00
49194;BME280;35029;50.804;12.866;2023-04-08T06:21:02;98071.88;;;4.48;100.00
49194;BME280;35029;50.804;12.866;2023-04-08T06:23:28;98092.66;;;4.59;100.00
49194;BME280;35029;50.804;12.866;2023-04-08T06:25:53;98101.38;;;4.60;100.00
49194;BME280;35029;50.804;12.866;2023-04-08T06:28:19;98100.28;;;4.52;100.00
49194;BME280;35029;50.804;12.866;2023-04-08T06:30:44;98098.25;;;4.46;100.00
49194;BME280;35029;50.804;12.866;2023-04-08T06:33:10;98114.41;;;4.51;100.00
49194;BME280;35029;50.804;12.866;2023-04-08T06:35:35;98105.03;;;4.49;100.00
49194;BME280;35029;50.804;12.866;2023-04-08T06:38:04;98107.19;;;4.53;100.00
49194;BME280;35029;50.804;12.866;2023-04-08T06:40:29;98112.44;;;4.53;100.00
49194;BME280;35029;50.804;12.866;2023-04-08T06:42:55;98119.50;;;4.53;100.00
49194;BME280;35029;50.804;12.866;2023-04-08T06:45:33;98121.91;;;4.46;100.00
49194;BME280;35029;50.804;12.866;2023-04-08T06:47:58;98109.66;;;4.55;100.00
49194;BME280;35029;50.804;12.866;2023-04-08T06:50:24;98108.47;;;4.49;100.00
49194;BME280;35029;50.804;12.866;2023-04-08T06:52:50;98098.56;;;4.43;100.00
49194;BME280;35029;50.804;12.866;2023-04-08T06:55:15;98111.19;;;4.57;100.00
49194;BME280;35029;50.804;12.866;2023-04-08T06:57:41;98121.69;;;4.57;100.00
49194;BME280;35029;50.804;12.866;2023-04-08T07:00:07;98112.69;;;4.60;100.00
49194;BME280;35029;50.804;12.866;2023-04-08T07:02:33;98104.72;;;4.52;100.00
49194;BME280;35029;50.804;12.866;2023-04-08T07:04:59;98109.16;;;4.51;100.00
49194;BME280;35029;50.804;12.866;2023-04-08T07:07:24;98131.75;;;4.62;100.00
49194;BME280;35029;50.804;12.866;2023-04-08T07:09:50;98121.75;;;4.66;100.00
49194;BME280;35029;50.804;12.866;2023-04-08T07:12:16;98128.06;;;4.73;100.00
49194;BME280;35029;50.804;12.866;2023-04-08T07:14:41;98127.78;;;4.76;100.00
49194;BME280;35029;50.804;12.866;2023-04-08T07:17:07;98130.84;;;4.71;100.00
49194;BME280;35029;50.804;12.866;2023-04-08T07:19:33;98110.84;;;4.70;100.00
49194;BME280;35029;50.804;12.866;2023-04-08T07:21:58;98133.13;;;4.84;100.00
49194;BME280;35029;50.804;12.866;2023-04-08T07:24:24;98107.34;;;4.70;100.00
49194;BME280;35029;50.804;12.866;2023-04-08T07:26:49;98114.03;;;4.64;100.00
49194;BME280;35029;50.804;12.866;2023-04-08T07:29:15;98136.03;;;4.81;100.00
49194;BME280;35029;50.804;12.866;2023-04-08T07:31:44;98135.75;;;4.84;100.00
49194;BME280;35029;50.804;12.866;2023-04-08T07:34:10;98139.81;;;4.79;100.00
49194;BME280;35029;50.804;12.866;2023-04-08T07:36:35;98147.22;;;4.83;100.00
49194;BME280;35029;50.804;12.866;2023-04-08T07:39:01;98122.53;;;4.76;100.00
49194;BME280;35029;50.804;12.866;2023-04-08T07:41:28;98143.78;;;4.83;100.00
49194;BME280;35029;50.804;12.866;2023-04-08T07:43:54;98135.66;;;4.76;100.00
49194;BME280;35029;50.804;12.866;2023-04-08T07:46:20;98147.91;;;4.85;100.00
49194;BME280;35029;50.804;12.866;2023-04-08T07:48:45;98148.03;;;4.84;100.00
49194;BME280;35029;50.804;12.866;2023-04-08T07:51:11;98158.44;;;4.85;100.00
49194;BME280;35029;50.804;12.866;2023-04-08T07:53:38;98162.25;;;4.91;100.00
49194;BME280;35029;50.804;12.866;2023-04-08T07:56:14;98163.06;;;4.91;100.00
49194;BME280;35029;50.804;12.866;2023-04-08T07:58:40;98163.44;;;4.97;100.00
49194;BME280;35029;50.804;12.866;2023-04-08T08:01:20;98162.09;;;4.93;100.00
49194;BME280;35029;50.804;12.866;2023-04-08T08:03:47;98158.72;;;5.00;100.00
49194;BME280;35029;50.804;12.866;2023-04-08T08:06:13;98146.75;;;4.88;100.00
49194;BME280;35029;50.804;12.866;2023-04-08T08:08:39;98163.84;;;5.02;100.00
49194;BME280;35029;50.804;12.866;2023-04-08T08:11:04;98139.03;;;4.86;100.00
49194;BME280;35029;50.804;12.866;2023-04-08T08:13:30;98149.13;;;4.91;100.00
49194;BME280;35029;50.804;12.866;2023-04-08T08:15:56;98149.41;;;4.88;100.00
49194;BME280;35029;50.804;12.866;2023-04-08T08:18:22;98179.28;;;5.05;100.00
49194;BME280;35029;50.804;12.866;2023-04-08T08:20:48;98168.78;;;5.05;100.00
49194;BME280;35029;50.804;12.866;2023-04-08T08:23:13;98158.59;;;5.02;100.00
49194;BME280;35029;50.804;12.866;2023-04-08T08:25:39;98181.38;;;5.19;100.00
49194;BME280;35029;50.804;12.866;2023-04-08T08:28:05;98178.75;;;5.19;100.00
49194;BME280;35029;50.804;12.866;2023-04-08T08:30:31;98160.50;;;5.18;100.00
49194;BME280;35029;50.804;12.866;2023-04-08T08:32:57;98179.22;;;5.33;100.00
49194;BME280;35029;50.804;12.866;2023-04-08T08:35:24;98185.47;;;5.32;100.00
49194;BME280;35029;50.804;12.866;2023-04-08T08:37:50;98188.91;;;5.32;100.00
49194;BME280;35029;50.804;12.866;2023-04-08T08:40:16;98191.47;;;5.42;100.00
49194;BME280;35029;50.804;12.866;2023-04-08T08:42:52;98183.25;;;5.45;100.00
49194;BME280;35029;50.804;12.866;2023-04-08T08:45:20;98178.53;;;5.49;100.00
49194;BME280;35029;50.804;12.866;2023-04-08T08:48:02;98207.38;;;5.58;100.00
49194;BME280;35029;50.804;12.866;2023-04-08T08:50:46;98204.56;;;5.60;100.00
49194;BME280;35029;50.804;12.866;2023-04-08T08:53:17;98206.72;;;5.56;100.00
49194;BME280;35029;50.804;12.866;2023-04-08T08:55:44;98208.50;;;5.56;100.00
49194;BME280;35029;50.804;12.866;2023-04-08T08:58:09;98209.69;;;5.62;100.00
49194;BME280;35029;50.804;12.866;2023-04-08T09:00:37;98217.94;;;5.67;100.00
49194;BME280;35029;50.804;12.866;2023-04-08T09:03:26;98216.00;;;5.69;100.00
49194;BME280;35029;50.804;12.866;2023-04-08T09:05:54;98218.31;;;5.72;100.00
49194;BME280;35029;50.804;12.866;2023-04-08T09:08:33;98206.00;;;5.72;100.00
49194;BME280;35029;50.804;12.866;2023-04-08T09:13:42;98221.06;;;5.88;100.00
49194;BME280;35029;50.804;12.866;2023-04-08T09:16:10;98231.59;;;5.88;100.00
49194;BME280;35029;50.804;12.866;2023-04-08T09:18:37;98226.19;;;5.90;100.00
49194;BME280;35029;50.804;12.866;2023-04-08T09:21:04;98209.00;;;5.78;100.00
49194;BME280;35029;50.804;12.866;2023-04-08T09:23:50;98226.34;;;5.88;100.00
49194;BME280;35029;50.804;12.866;2023-04-08T09:26:23;98212.47;;;5.78;100.00
49194;BME280;35029;50.804;12.866;2023-04-08T09:31:26;98241.31;;;6.06;100.00
49194;BME280;35029;50.804;12.866;2023-04-08T09:33:55;98229.03;;;5.97;100.00
49194;BME280;35029;50.804;12.866;2023-04-08T09:36:21;98241.13;;;6.07;100.00
49194;BME280;35029;50.804;12.866;2023-04-08T09:38:47;98238.88;;;6.13;100.00
49194;BME280;35029;50.804;12.866;2023-04-08T09:41:15;98227.59;;;6.20;100.00
49194;BME280;35029;50.804;12.866;2023-04-08T09:43:43;98234.72;;;6.36;100.00
49194;BME280;35029;50.804;12.866;2023-04-08T09:46:15;98242.94;;;6.33;100.00
49194;BME280;35029;50.804;12.866;2023-04-08T09:48:48;98250.69;;;6.35;100.00
49194;BME280;35029;50.804;12.866;2023-04-08T09:51:15;98247.91;;;6.36;100.00
49194;BME280;35029;50.804;12.866;2023-04-08T09:53:48;98232.41;;;6.33;100.00
49194;BME280;35029;50.804;12.866;2023-04-08T09:56:18;98254.38;;;6.50;100.00
49194;BME280;35029;50.804;12.866;2023-04-08T09:58:58;98256.03;;;6.51;100.00
49194;BME280;35029;50.804;12.866;2023-04-08T10:01:31;98232.72;;;6.30;100.00
49194;BME280;35029;50.804;12.866;2023-04-08T10:04:04;98250.91;;;6.41;100.00
49194;BME280;35029;50.804;12.866;2023-04-08T10:06:33;98262.16;;;6.52;100.00
49194;BME280;35029;50.804;12.866;2023-04-08T10:09:00;98245.59;;;6.68;100.00
49194;BME280;35029;50.804;12.866;2023-04-08T10:11:27;98246.34;;;6.94;100.00
49194;BME280;35029;50.804;12.866;2023-04-08T10:13:54;98249.34;;;7.00;100.00
49194;BME280;35029;50.804;12.866;2023-04-08T10:16:21;98249.06;;;7.19;100.00
49194;BME280;35029;50.804;12.866;2023-04-08T10:18:50;98251.53;;;7.29;100.00
49194;BME280;35029;50.804;12.866;2023-04-08T10:21:37;98245.59;;;7.19;100.00
49194;BME280;35029;50.804;12.866;2023-04-08T10:24:06;98256.78;;;7.13;100.00
49194;BME280;35029;50.804;12.866;2023-04-08T10:26:37;98263.38;;;7.17;100.00
49194;BME280;35029;50.804;12.866;2023-04-08T10:31:48;98265.84;;;7.10;100.00
49194;BME280;35029;50.804;12.866;2023-04-08T10:34:24;98261.59;;;7.25;100.00
49194;BME280;35029;50.804;12.866;2023-04-08T10:36:51;98265.44;;;7.39;100.00
49194;BME280;35029;50.804;12.866;2023-04-08T10:39:18;98236.41;;;7.39;100.00
49194;BME280;35029;50.804;12.866;2023-04-08T10:41:45;98271.22;;;7.51;100.00
49194;BME280;35029;50.804;12.866;2023-04-08T10:44:21;98264.78;;;7.54;100.00
49194;BME280;35029;50.804;12.866;2023-04-08T10:46:48;98258.84;;;7.43;100.00
49194;BME280;35029;50.804;12.866;2023-04-08T10:49:15;98243.16;;;7.25;100.00
49194;BME280;35029;50.804;12.866;2023-04-08T10:51:42;98256.63;;;7.22;100.00
49194;BME280;35029;50.804;12.866;2023-04-08T10:54:12;98262.72;;;7.15;100.00
49194;BME280;35029;50.804;12.866;2023-04-08T10:56:50;98259.25;;;7.14;100.00
49194;BME280;35029;50.804;12.866;2023-04-08T10:59:26;98261.72;;;7.16;100.00
49194;BME280;35029;50.804;12.866;2023-04-08T11:01:52;98240.41;;;6.92;100.00
49194;BME280;35029;50.804;12.866;2023-04-08T11:04:19;98263.56;;;7.15;100.00
49194;BME280;35029;50.804;12.866;2023-04-08T11:06:45;98266.38;;;7.30;100.00
49194;BME280;35029;50.804;12.866;2023-04-08T11:09:12;98260.97;;;7.48;100.00
49194;BME280;35029;50.804;12.866;2023-04-08T11:11:43;98240.22;;;7.53;100.00
49194;BME280;35029;50.804;12.866;2023-04-08T11:14:10;98253.91;;;7.90;100.00
49194;BME280;35029;50.804;12.866;2023-04-08T11:16:37;98270.03;;;8.36;100.00
49194;BME280;35029;50.804;12.866;2023-04-08T11:19:05;98265.50;;;8.70;100.00
49194;BME280;35029;50.804;12.866;2023-04-08T11:21:34;98270.31;;;8.74;95.07
49194;BME280;35029;50.804;12.866;2023-04-08T11:24:00;98272.81;;;8.68;98.67
49194;BME280;35029;50.804;12.866;2023-04-08T11:26:30;98269.22;;;8.44;98.09
49194;BME280;35029;50.804;12.866;2023-04-08T11:28:56;98287.22;;;8.32;98.54
49194;BME280;35029;50.804;12.866;2023-04-08T11:31:22;98283.13;;;8.13;99.77
49194;BME280;35029;50.804;12.866;2023-04-08T11:33:52;98282.94;;;8.06;98.50
49194;BME280;35029;50.804;12.866;2023-04-08T11:36:18;98292.84;;;8.12;97.27
49194;BME280;35029;50.804;12.866;2023-04-08T11:38:43;98296.31;;;8.05;95.35
49194;BME280;35029;50.804;12.866;2023-04-08T11:41:10;98283.28;;;7.70;93.33
49194;BME280;35029;50.804;12.866;2023-04-08T11:43:38;98296.00;;;7.91;93.10
49194;BME280;35029;50.804;12.866;2023-04-08T11:46:09;98293.00;;;7.86;95.08
49194;BME280;35029;50.804;12.866;2023-04-08T11:48:35;98290.72;;;7.83;96.24
49194;BME280;35029;50.804;12.866;2023-04-08T11:51:02;98290.03;;;7.81;95.02
49194;BME280;35029;50.804;12.866;2023-04-08T11:53:29;98296.63;;;7.85;96.44
49194;BME280;35029;50.804;12.866;2023-04-08T11:55:54;98296.31;;;7.88;94.96
49194;BME280;35029;50.804;12.866;2023-04-08T11:58:20;98288.41;;;7.88;96.21
49194;BME280;35029;50.804;12.866;2023-04-08T12:00:46;98281.94;;;7.66;92.15
49194;BME280;35029;50.804;12.866;2023-04-08T12:03:13;98292.66;;;7.73;93.30
49194;BME280;35029;50.804;12.866;2023-04-08T12:05:39;98275.69;;;7.67;94.83
49194;BME280;35029;50.804;12.866;2023-04-08T12:08:04;98268.09;;;7.64;95.18
49194;BME280;35029;50.804;12.866;2023-04-08T12:10:30;98301.44;;;7.82;96.58
49194;BME280;35029;50.804;12.866;2023-04-08T12:12:57;98273.38;;;7.64;97.96
49194;BME280;35029;50.804;12.866;2023-04-08T12:15:23;98281.78;;;7.68;98.13
49194;BME280;35029;50.804;12.866;2023-04-08T12:17:48;98301.09;;;7.68;97.30
49194;BME280;35029;50.804;12.866;2023-04-08T12:20:14;98293.97;;;7.69;96.45
49194;BME280;35029;50.804;12.866;2023-04-08T12:22:41;98303.03;;;7.66;97.69
49194;BME280;35029;50.804;12.866;2023-04-08T12:25:07;98299.06;;;7.62;97.68
49194;BME280;35029;50.804;12.866;2023-04-08T12:27:33;98311.81;;;7.67;98.08
49194;BME280;35029;50.804;12.866;2023-04-08T12:29:59;98306.03;;;7.71;97.92
49194;BME280;35029;50.804;12.866;2023-04-08T12:32:25;98296.13;;;7.65;96.58
49194;BME280;35029;50.804;12.866;2023-04-08T12:34:51;98304.53;;;7.69;97.24
49194;BME280;35029;50.804;12.866;2023-04-08T12:37:16;98308.50;;;7.73;97.51
49194;BME280;35029;50.804;12.866;2023-04-08T12:39:42;98309.50;;;7.72;96.94
49194;BME280;35029;50.804;12.866;2023-04-08T12:42:08;98313.31;;;7.77;95.04
49194;BME280;35029;50.804;12.866;2023-04-08T12:44:33;98290.34;;;7.70;96.56
49194;BME280;35029;50.804;12.866;2023-04-08T12:46:59;98309.84;;;7.93;97.10
49194;BME280;35029;50.804;12.866;2023-04-08T12:49:25;98304.56;;;8.10;98.20
49194;BME280;35029;50.804;12.866;2023-04-08T12:51:51;98305.03;;;8.22;96.70
49194;BME280;35029;50.804;12.866;2023-04-08T12:54:18;98300.91;;;8.19;95.87
49194;BME280;35029;50.804;12.866;2023-04-08T12:56:44;98311.00;;;8.24;92.72
49194;BME280;35029;50.804;12.866;2023-04-08T12:59:09;98307.22;;;8.18;94.88
49194;BME280;35029;50.804;12.866;2023-04-08T13:01:35;98307.84;;;8.20;95.42
49194;BME280;35029;50.804;12.866;2023-04-08T13:04:01;98305.38;;;8.19;95.46
49194;BME280;35029;50.804;12.866;2023-04-08T13:06:26;98304.22;;;8.21;96.31